createdAt,value
2019-01-15T00:00:33.110Z,99352.94
2019-01-15T00:03:00.252Z,99355.33
2019-01-15T00:05:27.506Z,99353.97
2019-01-15T00:07:55.511Z,99346.86
2019-01-15T00:10:22.741Z,99348.60
2019-01-15T00:12:49.618Z,99347.25
2019-01-15T00:15:16.931Z,99343.45
2019-01-15T00:17:43.940Z,99345.97
2019-01-15T00:20:11.238Z,99338.44
2019-01-15T00:22:38.463Z,99340.22
2019-01-15T00:25:05.713Z,99334.30
2019-01-15T00:27:32.575Z,99327.23
2019-01-15T00:29:59.467Z,99329.80
2019-01-15T00:32:27.387Z,99326.73
2019-01-15T00:34:54.315Z,99324.29
2019-01-15T00:37:21.179Z,99340.27
2019-01-15T00:39:48.029Z,99348.58
2019-01-15T00:42:15.691Z,99348.62
2019-01-15T00:44:43.038Z,99357.23
2019-01-15T00:47:10.274Z,99368.42
2019-01-15T00:49:37.138Z,99364.45
2019-01-15T00:52:04.025Z,99369.27
2019-01-15T00:54:30.972Z,99348.19
2019-01-15T00:56:57.878Z,99362.14
2019-01-15T00:59:25.907Z,99350.71
2019-01-15T01:01:52.862Z,99363.17
2019-01-15T01:04:19.797Z,99385.01
2019-01-15T01:06:46.988Z,99374.19
2019-01-15T01:09:14.240Z,99378.91
2019-01-15T01:11:41.471Z,99380.46
2019-01-15T01:14:08.622Z,99373.30
2019-01-15T01:16:35.489Z,99377.98
2019-01-15T01:19:02.362Z,99381.40
2019-01-15T01:21:29.308Z,99378.03
2019-01-15T01:23:56.237Z,99378.89
2019-01-15T01:26:23.525Z,99381.73
2019-01-15T01:28:50.706Z,99383.41
2019-01-15T01:31:17.984Z,99387.81
2019-01-15T01:33:44.932Z,99384.20
2019-01-15T01:36:11.844Z,99396.32
2019-01-15T01:38:38.851Z,99406.09
2019-01-15T01:41:05.810Z,99397.77
2019-01-15T01:43:32.995Z,99400.70
2019-01-15T01:46:00.160Z,99389.82
2019-01-15T01:48:27.114Z,99393.60
2019-01-15T01:50:54.040Z,99382.17
2019-01-15T01:53:20.921Z,99393.88
2019-01-15T01:55:48.151Z,99398.67
2019-01-15T01:58:15.085Z,99391.36
2019-01-15T02:00:41.963Z,99400.75
2019-01-15T02:03:09.194Z,99398.53
2019-01-15T02:05:36.150Z,99403.84
2019-01-15T02:08:04.070Z,99409.20
2019-01-15T02:10:31.364Z,99409.91
2019-01-15T02:12:58.328Z,99409.17
2019-01-15T02:15:25.289Z,99407.03
2019-01-15T02:17:52.193Z,99408.80
2019-01-15T02:20:19.136Z,99403.81
2019-01-15T02:22:46.005Z,99411.45
2019-01-15T02:25:13.445Z,99411.44
2019-01-15T02:27:40.696Z,99420.50
2019-01-15T02:30:08.038Z,99412.57
2019-01-15T02:32:34.908Z,99410.37
2019-01-15T02:35:01.763Z,99410.33
2019-01-15T02:37:28.648Z,99401.74
2019-01-15T02:39:55.597Z,99417.73
2019-01-15T02:42:22.888Z,99424.53
2019-01-15T02:44:50.028Z,99424.43
2019-01-15T02:47:17.180Z,99427.64
2019-01-15T02:49:44.339Z,99423.81
2019-01-15T02:52:11.583Z,99437.09
2019-01-15T02:54:38.463Z,99440.13
2019-01-15T02:57:05.433Z,99437.64
2019-01-15T02:59:32.292Z,99435.84
2019-01-15T03:01:59.456Z,99420.52
2019-01-15T03:04:26.349Z,99433.57
2019-01-15T03:06:53.551Z,99449.84
2019-01-15T03:09:20.416Z,99453.42
2019-01-15T03:11:47.298Z,99451.44
2019-01-15T03:14:14.245Z,99448.88
2019-01-15T03:16:41.170Z,99442.89
2019-01-15T03:19:08.073Z,99449.98
2019-01-15T03:21:35.351Z,99452.69
2019-01-15T03:24:02.579Z,99446.39
2019-01-15T03:26:29.755Z,99443.63
2019-01-15T03:28:56.996Z,99442.38
2019-01-15T03:31:23.950Z,99453.36
2019-01-15T03:33:50.917Z,99448.80
2019-01-15T03:36:18.247Z,99440.77
2019-01-15T03:38:45.182Z,99455.48
2019-01-15T03:41:12.037Z,99440.75
2019-01-15T03:43:38.904Z,99446.23
2019-01-15T03:46:05.770Z,99449.65
2019-01-15T03:48:32.642Z,99452.56
2019-01-15T03:50:59.513Z,99450.84
2019-01-15T03:53:26.423Z,99458.52
2019-01-15T03:55:53.712Z,99459.92
2019-01-15T03:58:20.970Z,99458.44
2019-01-15T04:00:47.825Z,99463.66
2019-01-15T04:03:15.693Z,99473.59
2019-01-15T04:05:44.052Z,99456.78
2019-01-15T04:08:11.016Z,99465.11
2019-01-15T04:10:37.966Z,99474.21
2019-01-15T04:13:11.264Z,99478.67
2019-01-15T04:15:33.769Z,99482.66
2019-01-15T04:18:00.675Z,99489.16
2019-01-15T04:20:27.631Z,99497.66
2019-01-15T04:22:55.827Z,99501.31
2019-01-15T04:25:22.983Z,99477.63
2019-01-15T04:27:49.858Z,99483.86
2019-01-15T04:30:16.871Z,99489.25
2019-01-15T04:32:44.258Z,99484.16
2019-01-15T04:35:11.205Z,99505.37
2019-01-15T04:37:38.137Z,99510.95
2019-01-15T04:40:05.014Z,99497.38
2019-01-15T04:42:31.891Z,99502.03
2019-01-15T04:44:59.281Z,99501.95
2019-01-15T04:47:26.429Z,99499.85
2019-01-15T04:49:53.287Z,99507.59
2019-01-15T04:52:20.158Z,99500.44
2019-01-15T04:54:47.115Z,99498.27
2019-01-15T04:57:14.319Z,99504.44
2019-01-15T04:59:41.266Z,99499.44
2019-01-15T05:02:08.505Z,99497.31
2019-01-15T05:04:35.393Z,99520.16
2019-01-15T05:07:02.296Z,99520.58
2019-01-15T05:09:29.573Z,99523.80
2019-01-15T05:11:56.805Z,99525.19
2019-01-15T05:14:23.786Z,99529.59
2019-01-15T05:16:50.735Z,99520.80
2019-01-15T05:19:17.660Z,99527.87
2019-01-15T05:21:44.578Z,99529.42
2019-01-15T05:24:11.542Z,99527.19
2019-01-15T05:26:38.479Z,99519.87
2019-01-15T05:29:05.718Z,99522.39
2019-01-15T05:31:32.599Z,99535.56
2019-01-15T05:33:59.623Z,99540.84
2019-01-15T05:36:26.576Z,99523.38
2019-01-15T05:38:53.536Z,99519.02
2019-01-15T05:41:21.632Z,99518.63
2019-01-15T05:43:48.521Z,99528.78
2019-01-15T05:46:15.493Z,99525.19
2019-01-15T05:48:42.867Z,99518.93
2019-01-15T05:51:09.826Z,99511.80
2019-01-15T05:53:36.780Z,99516.78
2019-01-15T05:56:04.091Z,99513.94
2019-01-15T05:58:31.237Z,99525.80
2019-01-15T06:00:58.591Z,99515.31
2019-01-15T06:03:25.841Z,99521.27
2019-01-15T06:05:52.767Z,99522.44
2019-01-15T06:08:19.714Z,99527.44
2019-01-15T06:10:46.624Z,99522.32
2019-01-15T06:13:14.033Z,99534.27
2019-01-15T06:15:41.437Z,99526.27
2019-01-15T06:18:08.394Z,99525.45
2019-01-15T06:20:35.677Z,99528.03
2019-01-15T06:23:02.927Z,99536.55
2019-01-15T06:25:29.829Z,99530.73
2019-01-15T06:27:56.781Z,99521.52
2019-01-15T06:30:24.701Z,99534.95
2019-01-15T06:32:51.664Z,99519.61
2019-01-15T06:35:18.597Z,99531.42
2019-01-15T06:37:45.841Z,99534.47
2019-01-15T06:40:12.824Z,99538.61
2019-01-15T06:42:39.761Z,99549.20
2019-01-15T06:45:06.679Z,99551.84
2019-01-15T06:47:33.598Z,99547.52
2019-01-15T06:50:00.762Z,99563.05
2019-01-15T06:52:27.793Z,99546.07
2019-01-15T06:54:54.732Z,99547.05
2019-01-15T06:57:21.679Z,99561.09
2019-01-15T06:59:48.628Z,99540.26
2019-01-15T07:02:15.902Z,99544.47
2019-01-15T07:04:44.032Z,99552.47
2019-01-15T07:07:11.137Z,99556.08
2019-01-15T07:09:38.097Z,99559.41
2019-01-15T07:12:05.332Z,99554.19
2019-01-15T07:14:32.504Z,99572.59
2019-01-15T07:16:59.730Z,99549.98
2019-01-15T07:19:26.624Z,99555.06
2019-01-15T07:21:53.972Z,99562.05
2019-01-15T07:24:20.916Z,99564.63
2019-01-15T07:26:47.876Z,99559.47
2019-01-15T07:29:15.080Z,99561.06
2019-01-15T07:31:42.318Z,99564.61
2019-01-15T07:34:09.202Z,99566.95
2019-01-15T07:36:36.529Z,99566.59
2019-01-15T07:39:03.668Z,99561.12
2019-01-15T07:41:31.952Z,99555.77
2019-01-15T07:44:04.291Z,99550.45
2019-01-15T07:46:27.421Z,99556.91
2019-01-15T07:48:54.366Z,99558.53
2019-01-15T07:51:21.592Z,99559.19
2019-01-15T07:53:48.517Z,99546.03
2019-01-15T07:56:15.745Z,99551.95
2019-01-15T07:58:42.681Z,99557.94
2019-01-15T08:01:09.658Z,99562.09
2019-01-15T08:03:36.914Z,99569.11
2019-01-15T08:06:03.797Z,99563.69
2019-01-15T08:08:31.027Z,99576.86
2019-01-15T08:10:57.987Z,99565.48
2019-01-15T08:13:24.860Z,99566.63
2019-01-15T08:15:52.064Z,99571.34
2019-01-15T08:18:19.308Z,99560.98
2019-01-15T08:20:46.173Z,99561.17
2019-01-15T08:23:13.429Z,99567.14
2019-01-15T08:25:40.371Z,99560.02
2019-01-15T08:28:07.257Z,99585.54
2019-01-15T08:30:34.205Z,99566.67
2019-01-15T08:33:01.084Z,99574.52
2019-01-15T08:35:28.233Z,99572.53
2019-01-15T08:37:55.144Z,99578.66
2019-01-15T08:40:22.338Z,99559.12
2019-01-15T08:42:49.213Z,99561.69
2019-01-15T08:45:16.578Z,99556.69
2019-01-15T08:47:43.537Z,99542.93
2019-01-15T08:50:11.033Z,99550.45
2019-01-15T08:52:37.934Z,99540.77
2019-01-15T08:55:04.911Z,99552.60
2019-01-15T08:57:32.186Z,99544.73
2019-01-15T08:59:59.113Z,99546.58
2019-01-15T09:02:26.404Z,99551.66
2019-01-15T09:04:53.288Z,99551.79
2019-01-15T09:07:20.603Z,99560.52
2019-01-15T09:09:47.573Z,99550.63
2019-01-15T09:12:14.774Z,99540.05
2019-01-15T09:14:42.266Z,99550.84
2019-01-15T09:17:11.117Z,99539.56
2019-01-15T09:19:37.758Z,99541.50
2019-01-15T09:22:05.013Z,99525.19
2019-01-15T09:24:31.886Z,99521.44
2019-01-15T09:26:59.114Z,99508.93
2019-01-15T09:29:26.290Z,99505.56
2019-01-15T09:31:53.227Z,99499.78
2019-01-15T09:34:20.181Z,99482.55
2019-01-15T09:36:47.118Z,99485.06
2019-01-15T09:39:14.015Z,99496.41
2019-01-15T09:41:40.968Z,99488.70
2019-01-15T09:44:08.152Z,99509.28
2019-01-15T09:46:35.143Z,99518.88
2019-01-15T09:49:02.089Z,99519.78
2019-01-15T09:51:29.402Z,99516.35
2019-01-15T09:53:56.357Z,99514.70
2019-01-15T09:56:23.598Z,99498.43
2019-01-15T09:58:50.555Z,99498.77
2019-01-15T10:01:17.493Z,99503.19
2019-01-15T10:03:44.634Z,99494.58
2019-01-15T10:06:11.578Z,99486.56
2019-01-15T10:08:38.454Z,99490.31
2019-01-15T10:11:05.344Z,99480.59
2019-01-15T10:13:32.329Z,99472.65
2019-01-15T10:16:00.082Z,99471.40
2019-01-15T10:18:27.001Z,99471.91
2019-01-15T10:20:53.884Z,99460.77
2019-01-15T10:23:21.133Z,99472.09
2019-01-15T10:25:48.986Z,99470.33
2019-01-15T10:28:15.951Z,99467.45
2019-01-15T10:30:43.282Z,99479.55
2019-01-15T10:33:12.179Z,99460.05
2019-01-15T10:35:39.440Z,99460.66
2019-01-15T10:38:06.416Z,99467.91
2019-01-15T10:40:33.633Z,99467.03
2019-01-15T10:43:00.567Z,99476.63
2019-01-15T10:45:27.582Z,99456.06
2019-01-15T10:47:54.454Z,99456.09
2019-01-15T10:50:21.834Z,99453.42
2019-01-15T10:52:49.101Z,99461.83
2019-01-15T10:55:16.329Z,99461.77
2019-01-15T10:57:43.205Z,99443.42
2019-01-15T11:00:10.097Z,99454.76
2019-01-15T11:02:38.225Z,99445.92
2019-01-15T11:05:05.557Z,99436.66
2019-01-15T11:07:32.909Z,99441.64
2019-01-15T11:09:59.820Z,99449.17
2019-01-15T11:12:26.758Z,99432.38
2019-01-15T11:14:56.276Z,99438.30
2019-01-15T11:17:22.282Z,99421.78
2019-01-15T11:19:49.199Z,99419.54
2019-01-15T11:22:16.069Z,99421.77
2019-01-15T11:24:43.237Z,99422.63
2019-01-15T11:27:10.205Z,99417.70
2019-01-15T11:29:37.853Z,99427.06
2019-01-15T11:32:04.879Z,99430.81
2019-01-15T11:34:31.825Z,99428.38
2019-01-15T11:36:58.696Z,99415.05
2019-01-15T11:39:25.970Z,99412.84
2019-01-15T11:41:52.936Z,99412.07
2019-01-15T11:44:19.929Z,99413.72
2019-01-15T11:46:47.216Z,99416.25
2019-01-15T11:49:14.095Z,99416.25
2019-01-15T11:51:40.988Z,99402.28
2019-01-15T11:54:07.941Z,99406.13
2019-01-15T11:56:34.904Z,99401.61
2019-01-15T11:59:01.834Z,99396.92
2019-01-15T12:01:29.084Z,99410.78
2019-01-15T12:03:56.336Z,99405.38
2019-01-15T12:06:23.293Z,99401.68
2019-01-15T12:08:50.437Z,99392.77
2019-01-15T12:11:21.038Z,99396.95
2019-01-15T12:13:48.344Z,99394.94
2019-01-15T12:16:15.308Z,99403.36
2019-01-15T12:18:42.333Z,99399.08
2019-01-15T12:21:09.309Z,99384.28
2019-01-15T12:23:38.881Z,99391.02
2019-01-15T12:26:05.849Z,99379.33
2019-01-15T12:28:33.067Z,99386.80
2019-01-15T12:30:59.941Z,99378.05
2019-01-15T12:33:27.176Z,99384.39
2019-01-15T12:35:54.429Z,99381.47
2019-01-15T12:38:21.674Z,99377.23
2019-01-15T12:40:48.537Z,99381.40
2019-01-15T12:43:15.515Z,99382.75
2019-01-15T12:45:42.722Z,99374.70
2019-01-15T12:48:09.972Z,99377.94
2019-01-15T12:50:36.856Z,99365.09
2019-01-15T12:53:04.154Z,99379.83
2019-01-15T12:55:31.164Z,99377.76
2019-01-15T12:57:58.069Z,99377.77
2019-01-15T13:00:25.418Z,99373.11
2019-01-15T13:02:52.706Z,99378.50
2019-01-15T13:05:20.033Z,99366.25
2019-01-15T13:07:46.963Z,99370.89
2019-01-15T13:10:14.110Z,99369.19
2019-01-15T13:12:41.273Z,99355.83
2019-01-15T13:15:08.526Z,99359.51
2019-01-15T13:17:35.460Z,99364.92
2019-01-15T13:20:02.353Z,99362.00
2019-01-15T13:22:29.275Z,99358.99
2019-01-15T13:25:05.127Z,99349.02
2019-01-15T13:27:36.286Z,99353.64
2019-01-15T13:30:03.246Z,99350.26
2019-01-15T13:32:31.317Z,99347.38
2019-01-15T13:34:58.181Z,99353.97
2019-01-15T13:37:25.086Z,99351.52
2019-01-15T13:39:52.051Z,99349.27
2019-01-15T13:42:19.006Z,99353.05
2019-01-15T13:44:46.205Z,99353.65
2019-01-15T13:47:13.143Z,99348.62
2019-01-15T13:49:40.285Z,99344.91
2019-01-15T13:52:07.553Z,99351.09
2019-01-15T13:54:34.442Z,99359.52
2019-01-15T13:57:01.387Z,99351.08
2019-01-15T13:59:28.585Z,99349.80
2019-01-15T14:01:55.458Z,99348.45
2019-01-15T14:04:22.333Z,99343.09
2019-01-15T14:06:49.216Z,99340.11
2019-01-15T14:09:16.596Z,99343.95
2019-01-15T14:11:43.536Z,99344.34
2019-01-15T14:14:10.537Z,99345.65
2019-01-15T14:16:37.421Z,99354.39
2019-01-15T14:19:04.666Z,99343.50
2019-01-15T14:21:31.541Z,99334.54
2019-01-15T14:23:58.434Z,99329.69
2019-01-15T14:26:25.617Z,99331.81
2019-01-15T14:28:52.625Z,99334.30
2019-01-15T14:31:20.531Z,99307.05
2019-01-15T14:33:48.894Z,99306.28
2019-01-15T14:36:15.784Z,99304.98
2019-01-15T14:38:43.105Z,99301.34
2019-01-15T14:41:10.261Z,99301.78
2019-01-15T14:43:37.149Z,99314.05
2019-01-15T14:46:04.099Z,99299.33
2019-01-15T14:48:31.019Z,99307.48
2019-01-15T14:50:58.945Z,99306.66
2019-01-15T14:53:25.898Z,99290.31
2019-01-15T14:55:52.905Z,99291.01
2019-01-15T14:58:19.830Z,99304.70
2019-01-15T15:00:46.727Z,99290.28
2019-01-15T15:03:13.604Z,99299.17
2019-01-15T15:05:48.934Z,99293.75
2019-01-15T15:08:15.813Z,99283.84
2019-01-15T15:10:43.136Z,99280.03
2019-01-15T15:13:10.008Z,99265.92
2019-01-15T15:15:36.998Z,99272.89
2019-01-15T15:18:03.943Z,99275.94
2019-01-15T15:20:30.898Z,99281.91
2019-01-15T15:22:58.190Z,99287.38
2019-01-15T15:25:25.212Z,99275.06
2019-01-15T15:27:52.363Z,99286.13
2019-01-15T15:30:19.499Z,99290.77
2019-01-15T15:32:46.665Z,99288.16
2019-01-15T15:35:13.813Z,99292.48
2019-01-15T15:37:40.780Z,99284.47
2019-01-15T15:40:08.016Z,99297.88
2019-01-15T15:42:34.977Z,99287.39
2019-01-15T15:45:02.202Z,99290.77
2019-01-15T15:47:30.158Z,99291.64
2019-01-15T15:49:57.119Z,99289.52
2019-01-15T15:52:24.389Z,99293.70
2019-01-15T15:54:51.620Z,99281.09
2019-01-15T15:57:18.503Z,99284.50
2019-01-15T15:59:45.357Z,99274.82
2019-01-15T16:02:12.583Z,99276.47
2019-01-15T16:04:39.548Z,99281.52
2019-01-15T16:07:06.770Z,99279.22
2019-01-15T16:09:33.709Z,99278.13
2019-01-15T16:12:00.972Z,99271.91
2019-01-15T16:14:28.320Z,99265.88
2019-01-15T16:16:55.484Z,99284.08
2019-01-15T16:19:22.735Z,99291.56
2019-01-15T16:21:49.680Z,99285.30
2019-01-15T16:24:16.685Z,99284.89
2019-01-15T16:26:43.569Z,99281.56
2019-01-15T16:29:10.659Z,99269.56
2019-01-15T16:31:38.666Z,99273.08
2019-01-15T16:34:07.991Z,99278.95
2019-01-15T16:36:34.962Z,99273.14
2019-01-15T16:39:02.202Z,99268.91
2019-01-15T16:41:30.713Z,99251.56
2019-01-15T16:43:57.781Z,99274.80
2019-01-15T16:46:26.425Z,99286.61
2019-01-15T16:48:53.540Z,99266.48
2019-01-15T16:51:20.707Z,99276.09
2019-01-15T16:53:48.065Z,99255.56
2019-01-15T16:56:16.443Z,99248.86
2019-01-15T16:58:43.418Z,99241.72
2019-01-15T17:01:10.398Z,99256.40
2019-01-15T17:03:37.349Z,99248.05
2019-01-15T17:06:04.292Z,99240.46
2019-01-15T17:08:31.584Z,99247.55
2019-01-15T17:11:02.014Z,99242.12
2019-01-15T17:13:29.249Z,99244.23
2019-01-15T17:15:56.416Z,99237.09
2019-01-15T17:18:23.361Z,99228.28
2019-01-15T17:20:50.621Z,99221.42
2019-01-15T17:23:17.602Z,99217.76
2019-01-15T17:25:44.557Z,99226.61
2019-01-15T17:28:11.554Z,99217.81
2019-01-15T17:30:38.900Z,99216.50
2019-01-15T17:33:05.884Z,99214.45
2019-01-15T17:35:33.246Z,99216.14
2019-01-15T17:38:00.508Z,99222.46
2019-01-15T17:40:28.012Z,99222.84
2019-01-15T17:42:55.365Z,99226.20
2019-01-15T17:45:22.633Z,99218.22
2019-01-15T17:47:49.516Z,99232.03
2019-01-15T17:50:16.477Z,99219.52
2019-01-15T17:52:43.827Z,99211.97
2019-01-15T17:55:11.978Z,99245.50
2019-01-15T17:57:39.094Z,99242.16
2019-01-15T18:00:06.356Z,99249.74
2019-01-15T18:02:33.386Z,99263.14
2019-01-15T18:05:00.648Z,99255.18
2019-01-15T18:07:27.509Z,99247.63
2019-01-15T18:09:54.426Z,99249.33
2019-01-15T18:12:21.526Z,99252.65
2019-01-15T18:14:50.106Z,99235.45
2019-01-15T18:17:17.439Z,99237.56
2019-01-15T18:19:44.389Z,99234.62
2019-01-15T18:22:11.292Z,99232.09
2019-01-15T18:24:38.498Z,99225.38
2019-01-15T18:27:05.820Z,99227.90
2019-01-15T18:29:33.070Z,99220.33
2019-01-15T18:31:59.956Z,99217.02
2019-01-15T18:34:27.105Z,99218.25
2019-01-15T18:36:54.049Z,99222.44
2019-01-15T18:39:27.345Z,99226.66
2019-01-15T18:41:54.703Z,99224.55
2019-01-15T18:44:21.913Z,99225.39
2019-01-15T18:46:55.663Z,99211.96
2019-01-15T18:49:19.650Z,99224.10
2019-01-15T18:51:49.638Z,99222.89
2019-01-15T18:54:18.520Z,99216.16
2019-01-15T18:56:45.445Z,99223.31
2019-01-15T18:59:12.561Z,99221.61
2019-01-15T19:01:39.594Z,99222.43
2019-01-15T19:04:06.650Z,99219.11
2019-01-15T19:06:33.614Z,99219.50
2019-01-15T19:09:00.596Z,99220.34
2019-01-15T19:11:29.366Z,99216.11
2019-01-15T19:13:56.642Z,99221.20
2019-01-15T19:16:23.841Z,99217.02
2019-01-15T19:18:50.814Z,99222.45
2019-01-15T19:21:17.805Z,99225.34
2019-01-15T19:23:44.863Z,99212.78
2019-01-15T19:26:11.840Z,99223.27
2019-01-15T19:28:39.009Z,99219.07
2019-01-15T19:31:06.226Z,99214.91
2019-01-15T19:33:33.101Z,99211.96
2019-01-15T19:36:00.390Z,99219.48
2019-01-15T19:38:27.727Z,99216.56
2019-01-15T19:40:56.415Z,99218.25
2019-01-15T19:43:23.698Z,99219.45
2019-01-15T19:45:51.011Z,99228.72
2019-01-15T19:48:17.900Z,99232.95
2019-01-15T19:50:45.122Z,99218.23
2019-01-15T19:53:13.452Z,99218.63
2019-01-15T19:55:41.299Z,99209.41
2019-01-15T19:58:08.320Z,99232.09
2019-01-15T20:00:35.539Z,99214.05
2019-01-15T20:03:02.857Z,99206.08
2019-01-15T20:05:30.175Z,99206.08
2019-01-15T20:07:57.530Z,99218.23
2019-01-15T20:10:25.619Z,99201.45
2019-01-15T20:12:52.946Z,99209.45
2019-01-15T20:15:19.889Z,99223.28
2019-01-15T20:17:46.805Z,99227.88
2019-01-15T20:20:14.122Z,99216.95
2019-01-15T20:22:41.475Z,99230.38
2019-01-15T20:25:08.694Z,99219.52
2019-01-15T20:27:35.716Z,99221.98
2019-01-15T20:30:03.335Z,99213.97
2019-01-15T20:32:33.245Z,99237.06
2019-01-15T20:35:00.310Z,99242.59
2019-01-15T20:37:27.615Z,99233.78
2019-01-15T20:39:54.870Z,99235.45
2019-01-15T20:42:22.137Z,99232.49
2019-01-15T20:44:49.395Z,99243.81
2019-01-15T20:47:16.412Z,99239.63
2019-01-15T20:49:43.584Z,99241.27
2019-01-15T20:52:12.893Z,99244.63
2019-01-15T20:54:40.668Z,99240.42
2019-01-15T20:57:07.771Z,99243.39
2019-01-15T20:59:35.146Z,99236.23
2019-01-15T21:02:02.054Z,99235.35
2019-01-15T21:04:28.986Z,99237.77
2019-01-15T21:06:56.207Z,99241.20
2019-01-15T21:09:23.116Z,99237.05
2019-01-15T21:11:53.168Z,99251.23
2019-01-15T21:14:20.424Z,99252.43
2019-01-15T21:16:47.369Z,99250.77
2019-01-15T21:19:17.978Z,99238.17
2019-01-15T21:21:44.951Z,99236.02
2019-01-15T21:24:11.957Z,99246.13
2019-01-15T21:26:38.969Z,99249.46
2019-01-15T21:29:06.190Z,99245.98
2019-01-15T21:31:33.120Z,99248.19
2019-01-15T21:33:59.984Z,99250.12
2019-01-15T21:36:26.875Z,99253.53
2019-01-15T21:38:53.840Z,99242.76
2019-01-15T21:41:21.120Z,99241.87
2019-01-15T21:43:48.061Z,99229.38
2019-01-15T21:46:14.952Z,99240.31
2019-01-15T21:48:41.828Z,99241.94
2019-01-15T21:51:09.158Z,99239.25
2019-01-15T21:53:36.556Z,99237.28
2019-01-15T21:56:03.808Z,99237.29
2019-01-15T21:58:30.774Z,99247.42
2019-01-15T22:00:58.150Z,99250.39
2019-01-15T22:03:25.113Z,99258.77
2019-01-15T22:05:52.414Z,99233.64
2019-01-15T22:08:19.275Z,99248.61
2019-01-15T22:10:46.193Z,99250.95
2019-01-15T22:13:13.364Z,99241.30
2019-01-15T22:15:40.329Z,99253.87
2019-01-15T22:18:07.683Z,99237.00
2019-01-15T22:20:34.620Z,99230.76
2019-01-15T22:23:01.851Z,99240.29
2019-01-15T22:25:28.782Z,99246.89
2019-01-15T22:27:55.803Z,99252.31
2019-01-15T22:30:22.926Z,99245.33
2019-01-15T22:32:50.264Z,99251.73
2019-01-15T22:35:17.404Z,99246.64
2019-01-15T22:37:44.655Z,99252.78
2019-01-15T22:40:11.814Z,99262.52
2019-01-15T22:42:38.794Z,99269.75
2019-01-15T22:45:06.001Z,99261.24
2019-01-15T22:47:33.156Z,99269.27
2019-01-15T22:50:00.409Z,99270.09
2019-01-15T22:52:27.347Z,99269.73
2019-01-15T22:54:54.619Z,99270.63
2019-01-15T22:57:21.866Z,99281.55
2019-01-15T22:59:49.122Z,99266.77
2019-01-15T23:02:16.002Z,99268.08
2019-01-15T23:04:43.313Z,99270.11
2019-01-15T23:07:10.567Z,99275.58
2019-01-15T23:09:37.563Z,99272.62
2019-01-15T23:12:04.499Z,99272.23
2019-01-15T23:14:31.423Z,99281.60
2019-01-15T23:16:58.289Z,99279.88
2019-01-15T23:19:25.178Z,99276.06
2019-01-15T23:21:52.462Z,99263.84
2019-01-15T23:24:19.697Z,99286.63
2019-01-15T23:26:46.628Z,99281.59
2019-01-15T23:29:13.589Z,99280.73
2019-01-15T23:31:40.842Z,99271.09
2019-01-15T23:34:08.086Z,99264.36
2019-01-15T23:36:35.007Z,99272.36
2019-01-15T23:39:02.284Z,99268.97
2019-01-15T23:41:31.079Z,99267.68
2019-01-15T23:43:58.347Z,99265.22
2019-01-15T23:46:25.228Z,99261.87
2019-01-15T23:48:52.172Z,99247.58
2019-01-15T23:51:19.386Z,99255.91
2019-01-15T23:53:46.288Z,99255.44
2019-01-15T23:56:13.579Z,99252.96
2019-01-15T23:58:40.581Z,99262.22
